Time;durP1;ratioP1;P1;durP2;ratioP2;P2;SDS_P1;SDS_P2;PMS_P1;PMS_P2;Temp;Humidity;BMP_temperature;BMP_pressure;BME280_temperature;BME280_humidity;BME280_pressure;Samples;Min_cycle;Max_cycle;Signal;HPM_P1;HPM_P2
2023/10/14 00:00:33;;;;;;;1999.90;999.90;;;13.50;99.90;;;;;;5109613;28;20027;-69
2023/10/14 00:03:06;;;;;;;1999.90;999.90;;;13.40;99.90;;;;;;5109922;28;20036;-70
2023/10/14 00:05:31;;;;;;;1999.90;999.90;;;13.40;99.90;;;;;;5101765;28;20103;-69
2023/10/14 00:07:57;;;;;;;1999.90;999.90;;;13.40;99.90;;;;;;5113223;28;20118;-68
2023/10/14 00:10:23;;;;;;;1999.90;999.90;;;13.40;99.90;;;;;;5108841;28;20024;-69
2023/10/14 00:12:53;;;;;;;1999.90;999.90;;;13.40;99.90;;;;;;5104979;27;20027;-70
2023/10/14 00:15:19;;;;;;;1999.90;999.90;;;13.30;99.90;;;;;;5109189;28;20016;-69
2023/10/14 00:17:45;;;;;;;1999.90;999.90;;;13.30;99.90;;;;;;5108693;28;20073;-68
2023/10/14 00:20:11;;;;;;;1999.90;999.90;;;13.30;99.90;;;;;;5107759;28;20031;-69
2023/10/14 00:22:39;;;;;;;1999.90;999.90;;;13.40;99.90;;;;;;5109559;28;20012;-68
2023/10/14 00:25:23;;;;;;;1999.90;999.90;;;13.40;99.90;;;;;;5108941;28;20028;-68
2023/10/14 00:27:50;;;;;;;1999.90;999.90;;;13.50;99.90;;;;;;5104079;28;20020;-68
2023/10/14 00:30:19;;;;;;;1999.90;999.90;;;13.50;99.90;;;;;;5101123;28;20027;-68
2023/10/14 00:32:45;;;;;;;1999.90;999.90;;;13.40;99.90;;;;;;5110008;28;20102;-70
2023/10/14 00:35:11;;;;;;;1999.90;999.90;;;13.40;99.90;;;;;;5106156;28;20112;-68
2023/10/14 00:37:38;;;;;;;1999.90;999.90;;;13.40;99.90;;;;;;5109927;28;20031;-68
2023/10/14 00:40:22;;;;;;;1999.90;999.90;;;13.40;99.90;;;;;;5115377;28;20061;-68
2023/10/14 00:42:50;;;;;;;1999.90;999.90;;;13.40;99.90;;;;;;5110788;28;20034;-68
2023/10/14 00:45:20;;;;;;;1999.90;999.90;;;13.40;99.90;;;;;;5107599;28;20020;-68
2023/10/14 00:47:48;;;;;;;1999.90;999.90;;;13.40;99.90;;;;;;5110645;28;20303;-75
2023/10/14 00:52:58;;;;;;;1999.90;999.90;;;13.40;99.90;;;;;;5098633;28;20047;-68
2023/10/14 00:55:27;;;;;;;1999.90;999.90;;;13.40;99.90;;;;;;5106955;28;20028;-68
2023/10/14 00:57:58;;;;;;;1999.90;999.90;;;13.40;99.90;;;;;;5082862;28;20016;-69
2023/10/14 01:00:34;;;;;;;1999.90;999.90;;;13.40;99.90;;;;;;5081179;28;20327;-68
2023/10/14 01:03:07;;;;;;;1999.90;999.90;;;13.30;99.90;;;;;;5110374;28;20036;-68
2023/10/14 01:05:35;;;;;;;1999.90;999.90;;;13.20;99.90;;;;;;5091789;28;20028;-68
2023/10/14 01:08:03;;;;;;;1999.90;999.90;;;13.30;99.90;;;;;;5089426;28;20024;-67
2023/10/14 01:10:29;;;;;;;1999.90;999.90;;;13.30;99.90;;;;;;5102531;28;20105;-68
2023/10/14 01:12:56;;;;;;;1999.90;999.90;;;13.30;99.90;;;;;;5107409;28;20027;-68
2023/10/14 01:15:24;;;;;;;1999.90;999.90;;;13.20;99.90;;;;;;5109087;28;20345;-68
2023/10/14 01:17:53;;;;;;;1999.90;999.90;;;13.10;99.90;;;;;;5112423;28;20404;-68
2023/10/14 01:22:51;;;;;;;1999.90;999.90;;;12.90;99.90;;;;;;5097847;28;20113;-68
2023/10/14 01:25:18;;;;;;;1999.90;999.90;;;12.70;99.90;;;;;;5101509;28;20264;-67
2023/10/14 01:27:44;;;;;;;1999.90;999.90;;;12.70;99.90;;;;;;5111057;28;20455;-77
2023/10/14 01:30:14;;;;;;;1999.90;999.90;;;12.60;99.90;;;;;;5115860;28;20103;-69
2023/10/14 01:32:48;;;;;;;1999.90;999.90;;;12.50;99.90;;;;;;5112857;28;20414;-68
2023/10/14 01:37:55;;;;;;;1999.90;999.90;;;12.50;99.90;;;;;;5104752;27;20026;-68
2023/10/14 01:43:04;;;;;;;1999.90;999.90;;;12.40;99.90;;;;;;5098776;28;20077;-68
2023/10/14 01:45:32;;;;;;;1999.90;999.90;;;12.40;99.90;;;;;;5099451;28;20012;-68
2023/10/14 01:50:38;;;;;;;1999.90;999.90;;;12.40;99.90;;;;;;5108378;28;20044;-68
2023/10/14 01:53:11;;;;;;;1999.90;999.90;;;12.40;99.90;;;;;;5097138;28;20031;-68
2023/10/14 01:55:43;;;;;;;1999.90;999.90;;;12.40;99.90;;;;;;5095718;28;20035;-68
2023/10/14 01:58:43;;;;;;;1999.90;999.90;;;12.40;99.90;;;;;;5102025;28;20067;-68
2023/10/14 02:03:44;;;;;;;;;;;12.30;99.90;;;;;;5108657;28;20081;-68
2023/10/14 02:06:16;;;;;;;1999.90;999.90;;;12.30;99.90;;;;;;5104602;28;20218;-79
2023/10/14 02:08:44;;;;;;;1999.90;999.90;;;12.30;99.90;;;;;;5099198;28;20020;-68
2023/10/14 02:11:10;;;;;;;1999.90;999.90;;;12.30;99.90;;;;;;5109761;28;20020;-68
2023/10/14 02:13:36;;;;;;;1999.90;999.90;;;12.20;99.90;;;;;;5104600;28;20926;-68
2023/10/14 02:16:08;;;;;;;1999.90;999.90;;;12.20;99.90;;;;;;5114682;28;20101;-68
2023/10/14 02:18:38;;;;;;;1999.90;999.90;;;12.20;99.90;;;;;;5105706;28;20036;-67
2023/10/14 02:21:18;;;;;;;1999.90;999.90;;;12.20;99.90;;;;;;5103046;28;20035;-67
2023/10/14 02:23:44;;;;;;;1999.90;999.90;;;12.20;99.90;;;;;;5111190;28;20045;-67
2023/10/14 02:26:25;;;;;;;1999.90;999.90;;;12.20;99.90;;;;;;5103842;28;20028;-67
2023/10/14 02:28:53;;;;;;;1999.90;999.90;;;12.10;99.90;;;;;;5091574;28;20347;-67
2023/10/14 02:31:29;;;;;;;1999.90;999.90;;;12.10;99.90;;;;;;5100850;28;20028;-67
2023/10/14 02:34:05;;;;;;;1999.90;999.90;;;12.10;99.90;;;;;;5105657;28;20054;-67
2023/10/14 02:36:35;;;;;;;1999.90;999.90;;;12.10;99.90;;;;;;5105286;28;20372;-67
2023/10/14 02:39:03;;;;;;;1999.90;999.90;;;12.10;99.90;;;;;;5102292;28;20114;-67
2023/10/14 02:41:32;;;;;;;1999.90;999.90;;;12.20;99.90;;;;;;5099642;28;20024;-69
2023/10/14 02:44:27;;;;;;;1999.90;999.90;;;12.20;99.90;;;;;;5109579;28;20028;-67
2023/10/14 02:46:53;;;;;;;1999.90;999.90;;;12.20;99.90;;;;;;5104480;28;20080;-79
2023/10/14 02:49:25;;;;;;;1999.90;999.90;;;12.10;99.90;;;;;;5096486;28;20028;-66
2023/10/14 02:51:52;;;;;;;1999.90;999.90;;;12.10;99.90;;;;;;5104334;28;20039;-67
2023/10/14 02:54:28;;;;;;;1999.90;999.90;;;12.10;99.90;;;;;;5105378;28;20120;-67
2023/10/14 02:56:59;;;;;;;1999.90;999.90;;;12.10;99.90;;;;;;5111267;28;20035;-67
2023/10/14 02:59:43;;;;;;;1999.90;999.90;;;12.10;99.90;;;;;;5098748;28;20028;-67
2023/10/14 03:02:39;;;;;;;1999.90;999.90;;;12.10;99.90;;;;;;5100563;28;20031;-67
2023/10/14 03:07:44;;;;;;;1999.90;999.90;;;12.10;99.90;;;;;;5077170;28;20070;-67
2023/10/14 03:10:13;;;;;;;1999.90;999.90;;;12.10;99.90;;;;;;5096238;28;20292;-67
2023/10/14 03:12:39;;;;;;;1999.90;999.90;;;12.00;99.90;;;;;;5098330;28;20036;-67
2023/10/14 03:15:21;;;;;;;;;;;12.00;99.90;;;;;;5084985;28;20421;-67
2023/10/14 03:17:53;;;;;;;1999.90;999.90;;;11.90;99.90;;;;;;5095595;28;19915;-79
2023/10/14 03:25:41;;;;;;;1999.90;999.90;;;11.80;99.90;;;;;;5101828;28;20012;-67
2023/10/14 03:28:17;;;;;;;1999.90;999.90;;;11.90;99.90;;;;;;5105396;28;20034;-67
2023/10/14 03:30:45;;;;;;;1999.90;999.90;;;11.90;99.90;;;;;;5101183;28;20154;-67
2023/10/14 03:33:19;;;;;;;1999.90;999.90;;;11.90;99.90;;;;;;5098755;28;20664;-68
2023/10/14 03:35:57;;;;;;;1999.90;999.90;;;12.00;99.90;;;;;;5101195;28;20150;-67
2023/10/14 03:41:04;;;;;;;1999.90;999.90;;;11.90;99.90;;;;;;5101111;28;20028;-67
2023/10/14 03:43:47;;;;;;;1999.90;999.90;;;11.80;99.90;;;;;;5103136;28;20430;-68
2023/10/14 03:46:23;;;;;;;1999.90;999.90;;;11.80;99.90;;;;;;5103120;28;20028;-67
2023/10/14 03:48:54;;;;;;;1999.90;999.90;;;11.80;99.90;;;;;;5102686;28;20024;-67
2023/10/14 03:51:27;;;;;;;1999.90;999.90;;;11.90;99.90;;;;;;5104333;28;20097;-66
2023/10/14 03:53:58;;;;;;;1999.90;999.90;;;11.90;99.90;;;;;;5081648;28;20475;-67
2023/10/14 03:56:31;;;;;;;1999.90;999.90;;;11.90;99.90;;;;;;5104732;27;20032;-67
2023/10/14 03:59:02;;;;;;;1999.90;999.90;;;11.90;99.90;;;;;;5100485;28;20074;-67
2023/10/14 04:04:20;;;;;;;1999.90;999.90;;;11.90;99.90;;;;;;5103475;28;20020;-66
2023/10/14 04:09:44;;;;;;;1999.90;999.90;;;11.90;99.90;;;;;;5102692;28;20018;-66
2023/10/14 04:12:12;;;;;;;1999.90;999.90;;;11.90;99.90;;;;;;5104227;28;20101;-67
2023/10/14 04:14:40;;;;;;;1999.90;999.90;;;11.90;99.90;;;;;;5101243;27;20208;-66
2023/10/14 04:17:52;;;;;;;1999.90;999.90;;;11.80;99.90;;;;;;5103173;27;20074;-66
2023/10/14 04:20:22;;;;;;;1999.90;999.90;;;11.80;99.90;;;;;;5097601;27;20051;-67
2023/10/14 04:22:46;;;;;;;1999.90;999.90;;;11.80;99.90;;;;;;5104311;28;20288;-67
2023/10/14 04:30:24;;;;;;;1999.90;999.90;;;11.80;99.90;;;;;;5102035;28;20380;-66
2023/10/14 04:35:23;;;;;;;1999.90;999.90;;;11.80;99.90;;;;;;5104114;28;20040;-67
2023/10/14 04:37:52;;;;;;;1999.90;999.90;;;11.80;99.90;;;;;;5087469;28;20328;-70
2023/10/14 04:43:19;;;;;;;1999.90;999.90;;;11.70;99.90;;;;;;5109269;28;20097;-84
2023/10/14 04:48:51;;;;;;;1999.90;999.90;;;11.70;99.90;;;;;;5093353;27;20036;-66
2023/10/14 04:51:18;;;;;;;1999.90;999.90;;;11.70;99.90;;;;;;5100137;28;20047;-67
2023/10/14 04:53:49;;;;;;;1999.90;999.90;;;11.60;99.90;;;;;;5085641;28;20020;-67
2023/10/14 04:56:22;;;;;;;1999.90;999.90;;;11.60;99.90;;;;;;5100121;28;20071;-67
2023/10/14 04:58:52;;;;;;;1999.90;999.90;;;11.60;99.90;;;;;;5096493;28;20028;-66
2023/10/14 05:01:18;;;;;;;1999.90;999.90;;;11.60;99.90;;;;;;5104630;27;20421;-67
2023/10/14 05:03:46;;;;;;;1999.90;999.90;;;11.60;99.90;;;;;;5110143;28;20292;-67
2023/10/14 05:08:44;;;;;;;1999.90;999.90;;;11.60;99.90;;;;;;5111482;27;20063;-68
2023/10/14 05:11:15;;;;;;;1999.90;999.90;;;11.60;99.90;;;;;;5086759;28;20296;-68
2023/10/14 05:13:44;;;;;;;1999.90;999.90;;;11.60;99.90;;;;;;5111395;27;20035;-67
2023/10/14 05:16:20;;;;;;;1999.90;999.90;;;11.60;99.90;;;;;;5099937;27;20046;-67
2023/10/14 05:19:00;;;;;;;1999.90;999.90;;;11.60;99.90;;;;;;5102303;27;20091;-67
2023/10/14 05:21:44;;;;;;;1999.90;999.90;;;11.60;99.90;;;;;;5108518;27;20028;-66
2023/10/14 05:24:11;;;;;;;1999.90;999.90;;;11.60;99.90;;;;;;5110535;28;20031;-67
2023/10/14 05:26:45;;;;;;;1999.90;999.90;;;11.50;99.90;;;;;;5099719;28;20050;-67
2023/10/14 05:29:19;;;;;;;1999.90;999.90;;;11.50;99.90;;;;;;5100723;27;20024;-77
2023/10/14 05:31:46;;;;;;;1999.90;999.90;;;11.60;99.90;;;;;;5099714;28;20092;-78
2023/10/14 05:34:13;;;;;;;1999.90;999.90;;;11.50;99.90;;;;;;5106176;27;20067;-79
2023/10/14 05:36:40;;;;;;;1999.90;999.90;;;11.60;99.90;;;;;;5101178;28;20051;-67
2023/10/14 05:39:06;;;;;;;1999.90;999.90;;;11.50;99.90;;;;;;5109018;27;20031;-67
2023/10/14 05:41:36;;;;;;;1999.90;999.90;;;11.60;99.90;;;;;;5087042;27;20045;-67
2023/10/14 05:44:04;;;;;;;1999.90;999.90;;;11.50;99.90;;;;;;5104461;28;20068;-67
2023/10/14 05:46:30;;;;;;;1999.90;999.90;;;11.50;99.90;;;;;;5102500;27;20028;-68
2023/10/14 05:48:56;;;;;;;1999.90;999.90;;;11.50;99.90;;;;;;5110958;27;20382;-67
2023/10/14 05:51:22;;;;;;;1999.90;999.90;;;11.50;99.90;;;;;;5114764;28;20126;-67
2023/10/14 05:53:49;;;;;;;1999.90;999.90;;;11.60;99.90;;;;;;5110558;27;20032;-67
2023/10/14 05:56:15;;;;;;;1999.90;999.90;;;11.50;99.90;;;;;;5102804;27;20035;-67
2023/10/14 05:58:48;;;;;;;1999.90;999.90;;;11.50;99.90;;;;;;5109661;27;20036;-67
2023/10/14 06:01:16;;;;;;;1999.90;999.90;;;11.50;99.90;;;;;;5115371;27;20029;-67
2023/10/14 06:03:42;;;;;;;1999.90;999.90;;;11.50;99.90;;;;;;5105820;27;20434;-67
2023/10/14 06:06:14;;;;;;;1999.90;999.90;;;11.40;99.90;;;;;;5101347;27;20040;-67
2023/10/14 06:08:43;;;;;;;1999.90;999.90;;;11.40;99.90;;;;;;5084603;28;20024;-67
2023/10/14 06:11:16;;;;;;;1999.90;999.90;;;11.40;99.90;;;;;;5114941;27;20037;-67
2023/10/14 06:13:43;;;;;;;1999.90;999.90;;;11.50;99.90;;;;;;5106006;28;20035;-66
2023/10/14 06:16:10;;;;;;;1999.90;999.90;;;11.50;99.90;;;;;;5094333;28;20031;-67
2023/10/14 06:18:40;;;;;;;1999.90;999.90;;;11.50;99.90;;;;;;5095334;28;20108;-67
2023/10/14 06:21:08;;;;;;;1999.90;999.90;;;11.50;99.90;;;;;;5111593;27;20031;-67
2023/10/14 06:23:34;;;;;;;1999.90;999.90;;;11.50;99.90;;;;;;5109446;27;20051;-78
2023/10/14 06:26:00;;;;;;;1999.90;999.90;;;11.40;99.90;;;;;;5098962;28;20034;-67
2023/10/14 06:28:30;;;;;;;1999.90;999.90;;;11.40;99.90;;;;;;5109726;27;20053;-80
2023/10/14 06:31:00;;;;;;;1999.90;999.90;;;11.40;99.90;;;;;;5092748;27;20050;-67
2023/10/14 06:33:26;;;;;;;1999.90;999.90;;;11.40;99.90;;;;;;5112101;27;20035;-80
2023/10/14 06:35:53;;;;;;;1999.90;999.90;;;11.40;99.90;;;;;;5113959;27;20042;-78
2023/10/14 06:38:20;;;;;;;1999.90;999.90;;;11.40;99.90;;;;;;5108620;27;20035;-67
2023/10/14 06:40:55;;;;;;;1999.90;999.90;;;11.40;99.90;;;;;;5090088;28;20202;-67
2023/10/14 06:43:26;;;;;;;1999.90;999.90;;;11.40;99.90;;;;;;5093636;28;20027;-68
2023/10/14 06:45:52;;;;;;;1999.90;999.90;;;11.40;99.90;;;;;;5104905;28;20030;-67
2023/10/14 06:48:18;;;;;;;1999.90;999.90;;;11.40;99.90;;;;;;5088576;28;20111;-67
2023/10/14 06:50:47;;;;;;;1999.90;999.90;;;11.50;99.90;;;;;;5112242;27;20397;-67
2023/10/14 06:53:18;;;;;;;1999.90;999.90;;;11.50;99.90;;;;;;5108565;28;20300;-67
2023/10/14 06:55:45;;;;;;;1999.90;999.90;;;11.60;99.90;;;;;;5110702;27;20076;-67
2023/10/14 06:58:18;;;;;;;1999.90;999.90;;;11.70;99.90;;;;;;5087376;28;20024;-67
2023/10/14 07:00:45;;;;;;;1999.90;999.90;;;11.80;99.90;;;;;;5108834;28;20479;-67
2023/10/14 07:03:14;;;;;;;1999.90;999.90;;;11.90;99.90;;;;;;5106378;28;20035;-66
2023/10/14 07:05:46;;;;;;;1999.90;999.90;;;12.10;99.90;;;;;;5092652;28;20069;-67
2023/10/14 07:08:13;;;;;;;1999.90;999.90;;;12.80;99.90;;;;;;5103599;27;20023;-67
2023/10/14 07:10:40;;;;;;;1999.90;999.90;;;13.40;99.90;;;;;;5122120;27;20076;-66
2023/10/14 07:13:06;;;;;;;;;;;13.80;99.90;;;;;;5115508;27;20023;-67
2023/10/14 07:15:36;;;;;;;1999.90;999.90;;;13.70;99.90;;;;;;5113063;27;19918;-67
2023/10/14 07:18:02;;;;;;;1999.90;999.90;;;13.50;99.90;;;;;;5117674;27;20027;-67
2023/10/14 07:20:29;;;;;;;1999.90;999.90;;;13.90;99.90;;;;;;5115190;27;20102;-76
2023/10/14 07:22:56;;;;;;;1999.90;999.90;;;14.50;99.90;;;;;;5110704;28;20340;-67
2023/10/14 07:25:23;;;;;;;1999.90;999.90;;;15.00;99.90;;;;;;5106959;28;20056;-68
2023/10/14 07:27:52;;;;;;;1999.90;999.90;;;15.40;99.90;;;;;;5114949;28;20444;-67
2023/10/14 07:30:19;;;;;;;1999.90;999.90;;;15.60;99.90;;;;;;5101847;28;20032;-67
2023/10/14 07:32:47;;;;;;;1999.90;999.90;;;15.60;99.90;;;;;;5111301;28;20362;-77
2023/10/14 07:35:14;;;;;;;1999.90;999.90;;;15.60;99.90;;;;;;5115122;27;20035;-66
2023/10/14 07:37:45;;;;;;;1999.90;999.90;;;15.50;99.90;;;;;;5105810;28;20067;-67
2023/10/14 07:40:27;;;;;;;1999.90;999.90;;;15.60;99.90;;;;;;5103130;28;20035;-71
2023/10/14 07:42:54;;;;;;;1999.90;999.90;;;15.60;99.90;;;;;;5101126;28;20407;-67
2023/10/14 07:45:33;;;;;;;1999.90;999.90;;;15.60;99.90;;;;;;5106949;28;20028;-67
2023/10/14 07:48:00;;;;;;;1999.90;999.90;;;15.70;99.90;;;;;;5101874;28;20116;-67
2023/10/14 07:50:35;;;;;;;1999.90;999.90;;;15.70;99.90;;;;;;5106500;28;20161;-68
2023/10/14 07:53:07;;;;;;;1999.90;999.90;;;15.80;99.90;;;;;;5103858;28;20046;-77
2023/10/14 07:55:41;;;;;;;1999.90;999.90;;;16.00;99.90;;;;;;5117923;28;20035;-67
2023/10/14 07:58:10;;;;;;;1999.90;999.90;;;16.10;99.90;;;;;;5120069;28;20088;-67
2023/10/14 08:00:48;;;;;;;1999.90;999.90;;;16.10;99.90;;;;;;5117145;28;20023;-67
2023/10/14 08:03:20;;;;;;;1999.90;999.90;;;15.90;99.90;;;;;;5097825;28;20019;-67
2023/10/14 08:05:49;;;;;;;1999.90;999.90;;;15.70;99.90;;;;;;5091336;28;20157;-67
2023/10/14 08:08:16;;;;;;;1999.90;999.90;;;15.50;99.90;;;;;;5115524;28;20063;-67
2023/10/14 08:10:45;;;;;;;1999.90;999.90;;;15.40;99.90;;;;;;5109519;28;20016;-67
2023/10/14 08:13:12;;;;;;;1999.90;999.90;;;15.50;99.90;;;;;;5110134;28;20032;-67
2023/10/14 08:15:37;;;;;;;1999.90;999.90;;;15.60;99.90;;;;;;5120940;28;20019;-68
2023/10/14 08:18:04;;;;;;;1999.90;999.90;;;15.70;99.90;;;;;;5117330;28;20323;-67
2023/10/14 08:20:31;;;;;;;1999.90;999.90;;;15.80;99.90;;;;;;5103856;27;20027;-67
2023/10/14 08:22:57;;;;;;;;;;;15.90;99.90;;;;;;5113965;28;20077;-83
2023/10/14 08:25:28;;;;;;;1999.90;999.90;;;16.10;99.90;;;;;;5115328;28;19908;-66
2023/10/14 08:27:55;;;;;;;1999.90;999.90;;;16.00;99.90;;;;;;5112926;28;20325;-67
2023/10/14 08:30:24;;;;;;;1999.90;999.90;;;15.80;99.90;;;;;;5107045;28;20030;-67
2023/10/14 08:32:52;;;;;;;1999.90;999.90;;;15.60;99.90;;;;;;5111943;27;20624;-67
2023/10/14 08:35:19;;;;;;;1999.90;999.90;;;15.50;99.90;;;;;;5102332;28;20054;-67
2023/10/14 08:37:52;;;;;;;1999.90;999.90;;;15.60;99.90;;;;;;5108184;27;20024;-67
2023/10/14 08:40:20;;;;;;;1999.90;999.90;;;15.50;99.90;;;;;;5097096;28;20040;-67
2023/10/14 08:42:51;;;;;;;1999.90;999.90;;;15.00;99.90;;;;;;5108144;28;20028;-78
2023/10/14 08:45:22;;;;;;;1999.90;999.90;;;14.60;99.90;;;;;;5098519;28;20024;-66
2023/10/14 08:47:50;;;;;;;1999.90;999.90;;;14.50;99.90;;;;;;5109561;28;20055;-66
2023/10/14 08:50:24;;;;;;;1999.90;999.90;;;14.80;99.90;;;;;;5098544;28;20339;-66
2023/10/14 08:52:53;;;;;;;1999.90;999.90;;;15.20;99.90;;;;;;5099276;28;20024;-68
2023/10/14 08:55:20;;;;;;;1999.90;999.90;;;15.50;99.90;;;;;;5108625;28;20073;-68
2023/10/14 08:57:47;;;;;;;1999.90;999.90;;;15.60;99.90;;;;;;5092363;28;20106;-67
2023/10/14 09:00:19;;;;;;;1999.90;999.90;;;15.80;99.90;;;;;;5116008;28;20039;-67
2023/10/14 09:02:48;;;;;;;1999.90;999.90;;;16.10;99.90;;;;;;5105498;28;20028;-67
2023/10/14 09:05:16;;;;;;;1999.90;999.90;;;16.20;99.90;;;;;;5089171;28;20051;-67
2023/10/14 09:07:46;;;;;;;1999.90;999.90;;;16.10;99.90;;;;;;5090032;28;20020;-67
2023/10/14 09:10:15;;;;;;;1999.90;999.90;;;16.00;99.90;;;;;;5102403;28;20410;-67
2023/10/14 09:12:57;;;;;;;1999.90;999.90;;;15.90;99.90;;;;;;5099404;28;20036;-67
2023/10/14 09:15:25;;;;;;;1999.90;999.90;;;15.90;99.90;;;;;;5107777;28;20020;-67
2023/10/14 09:17:55;;;;;;;1999.90;999.90;;;15.90;99.90;;;;;;5109386;28;20020;-67
2023/10/14 09:20:32;;;;;;;1999.90;999.90;;;15.90;99.90;;;;;;5102439;28;20110;-66
2023/10/14 09:24:03;;;;;;;1999.90;999.90;;;15.60;99.90;;;;;;5105903;28;20036;-66
2023/10/14 09:26:21;;;;;;;1999.90;999.90;;;15.40;99.90;;;;;;5093395;28;20064;-67
2023/10/14 09:28:48;;;;;;;1999.90;999.90;;;15.00;99.90;;;;;;5108403;28;20020;-66
2023/10/14 09:31:14;;;;;;;1999.90;999.90;;;15.00;99.90;;;;;;5085104;28;20028;-66
2023/10/14 09:33:44;;;;;;;1999.90;999.90;;;15.00;99.90;;;;;;5092565;28;20024;-67
2023/10/14 09:36:18;;;;;;;1999.90;999.90;;;15.20;99.90;;;;;;5107610;28;20032;-65
2023/10/14 09:38:48;;;;;;;1999.90;999.90;;;15.30;99.90;;;;;;5106577;28;20411;-67
2023/10/14 09:41:15;;;;;;;1999.90;999.90;;;15.20;99.90;;;;;;5098362;28;20024;-66
2023/10/14 09:43:45;;;;;;;;;;;15.10;99.90;;;;;;5110178;28;20023;-67
2023/10/14 09:46:12;;;;;;;1999.90;999.90;;;15.10;99.90;;;;;;5115445;28;19915;-67
2023/10/14 09:48:39;;;;;;;1999.90;999.90;;;15.10;99.90;;;;;;5107208;28;20100;-65
2023/10/14 09:51:06;;;;;;;1999.90;999.90;;;15.10;99.90;;;;;;5096197;28;20039;-66
2023/10/14 09:53:35;;;;;;;1999.90;999.90;;;15.20;99.90;;;;;;5077852;28;20377;-67
2023/10/14 09:56:06;;;;;;;1999.90;999.90;;;15.30;99.90;;;;;;5095794;28;20035;-67
2023/10/14 09:58:43;;;;;;;1999.90;999.90;;;15.40;99.90;;;;;;5103897;28;20051;-67
2023/10/14 10:01:16;;;;;;;1999.90;999.90;;;15.20;99.90;;;;;;5103036;28;20300;-68
2023/10/14 10:03:54;;;;;;;1999.90;999.90;;;15.00;99.90;;;;;;5103255;28;20418;-66
2023/10/14 10:06:43;;;;;;;1999.90;999.90;;;14.70;99.90;;;;;;5108381;28;20055;-66
2023/10/14 10:09:21;;;;;;;1999.90;999.90;;;14.80;99.90;;;;;;5115576;28;20027;-66
2023/10/14 10:11:50;;;;;;;1999.90;999.90;;;14.90;99.90;;;;;;5114611;28;20026;-67
2023/10/14 10:14:25;;;;;;;1999.90;999.90;;;15.10;99.90;;;;;;5102518;28;20107;-68
2023/10/14 10:16:56;;;;;;;1999.90;999.90;;;15.20;99.90;;;;;;5110275;28;20020;-66
2023/10/14 10:19:22;;;;;;;1999.90;999.90;;;15.40;99.90;;;;;;5103827;28;20438;-67
2023/10/14 10:22:13;;;;;;;1999.90;999.90;;;15.60;99.90;;;;;;5110505;27;20074;-78
2023/10/14 10:24:45;;;;;;;1999.90;999.90;;;15.70;99.90;;;;;;5107306;28;20043;-67
2023/10/14 10:27:11;;;;;;;1999.90;999.90;;;15.70;99.90;;;;;;5094911;28;20087;-66
2023/10/14 10:29:50;;;;;;;1999.90;999.90;;;15.50;99.90;;;;;;5102922;28;20020;-77
2023/10/14 10:32:21;;;;;;;1999.90;999.90;;;15.30;99.90;;;;;;5095672;28;20111;-76
2023/10/14 10:35:05;;;;;;;1999.90;999.90;;;15.30;99.90;;;;;;5107711;28;20084;-66
2023/10/14 10:37:48;;;;;;;1999.90;999.90;;;15.00;99.90;;;;;;5100875;28;20319;-66
2023/10/14 10:40:22;;;;;;;1999.90;999.90;;;14.80;99.90;;;;;;5110692;28;20426;-66
2023/10/14 10:42:55;;;;;;;1999.90;999.90;;;14.70;99.90;;;;;;5095327;28;20107;-66
2023/10/14 10:45:25;;;;;;;1999.90;999.90;;;14.50;99.90;;;;;;5098950;28;20023;-67
2023/10/14 10:47:55;;;;;;;1999.90;999.90;;;14.40;99.90;;;;;;5110729;28;20345;-67
2023/10/14 10:50:25;;;;;;;1999.90;999.90;;;14.20;99.90;;;;;;5107556;28;20044;-66
2023/10/14 10:53:08;;;;;;;1999.90;999.90;;;14.00;99.90;;;;;;5104546;28;20028;-66
2023/10/14 10:55:40;;;;;;;1999.90;999.90;;;13.80;99.90;;;;;;5104909;28;20078;-67
2023/10/14 10:58:07;;;;;;;1999.90;999.90;;;13.60;99.90;;;;;;5105949;28;20055;-67
2023/10/14 11:00:34;;;;;;;1999.90;999.90;;;13.60;99.90;;;;;;5100806;28;20095;-67
2023/10/14 11:03:02;;;;;;;1999.90;999.90;;;13.50;99.90;;;;;;5102985;28;20027;-67
2023/10/14 11:05:31;;;;;;;1999.90;999.90;;;13.60;99.90;;;;;;5109309;28;20087;-80
2023/10/14 11:07:57;;;;;;;1999.90;999.90;;;13.60;99.90;;;;;;5086507;28;20020;-66
2023/10/14 11:10:28;;;;;;;1999.90;999.90;;;13.60;99.90;;;;;;5105455;28;20031;-66
2023/10/14 11:12:58;;;;;;;1999.90;999.90;;;13.70;99.90;;;;;;5106296;28;20036;-82
2023/10/14 11:15:27;;;;;;;1999.90;999.90;;;13.70;99.90;;;;;;5110059;28;20027;-66
2023/10/14 11:17:56;;;;;;;1999.90;999.90;;;13.70;99.90;;;;;;5109845;28;20027;-67
2023/10/14 11:20:28;;;;;;;1999.90;999.90;;;13.70;99.90;;;;;;5100477;28;20028;-65
2023/10/14 11:22:56;;;;;;;1999.90;999.90;;;13.60;99.90;;;;;;5084755;28;20031;-67
2023/10/14 11:25:22;;;;;;;1999.90;999.90;;;13.80;99.90;;;;;;5106248;28;20098;-67
2023/10/14 11:27:49;;;;;;;1999.90;999.90;;;13.90;99.90;;;;;;5107188;28;20242;-67
2023/10/14 11:30:18;;;;;;;1999.90;999.90;;;13.80;99.90;;;;;;5110060;28;20363;-66
2023/10/14 11:32:51;;;;;;;1999.90;999.90;;;13.60;99.90;;;;;;5083842;28;20391;-67
2023/10/14 11:35:18;;;;;;;1999.90;999.90;;;13.30;99.90;;;;;;5102983;28;20027;-67
2023/10/14 11:38:02;;;;;;;1999.90;999.90;;;13.10;99.90;;;;;;5106217;28;20069;-67
2023/10/14 11:40:38;;;;;;;1999.90;999.90;;;12.90;99.90;;;;;;5085689;28;20063;-66
2023/10/14 11:43:11;;;;;;;1999.90;999.90;;;12.70;99.90;;;;;;5110522;28;20066;-67
2023/10/14 11:45:43;;;;;;;1999.90;999.90;;;12.70;99.90;;;;;;5095028;28;20057;-66
2023/10/14 11:48:33;;;;;;;1999.90;999.90;;;12.70;99.90;;;;;;5103755;28;20019;-66
2023/10/14 11:51:03;;;;;;;1999.90;999.90;;;12.70;99.90;;;;;;5095016;28;20115;-66
2023/10/14 11:53:33;;;;;;;1999.90;999.90;;;12.70;99.90;;;;;;5104544;28;20035;-66
2023/10/14 11:56:03;;;;;;;1999.90;999.90;;;12.70;99.90;;;;;;5084060;28;20028;-67
2023/10/14 11:58:31;;;;;;;1999.90;999.90;;;12.70;99.90;;;;;;5110236;27;20036;-69
2023/10/14 12:00:58;;;;;;;1999.90;999.90;;;12.60;99.90;;;;;;5112309;27;20419;-76
2023/10/14 12:03:27;;;;;;;1999.90;999.90;;;12.30;99.90;;;;;;5104614;27;20114;-67
2023/10/14 12:05:57;;;;;;;1999.90;999.90;;;12.20;99.90;;;;;;5106119;27;20028;-66
2023/10/14 12:08:30;;;;;;;1999.90;999.90;;;12.10;99.90;;;;;;5106183;27;20399;-67
2023/10/14 12:10:59;;;;;;;1999.90;999.90;;;11.90;99.90;;;;;;5112377;27;20091;-66
2023/10/14 12:13:28;;;;;;;1999.90;999.90;;;11.90;99.90;;;;;;5108686;27;20073;-66
2023/10/14 12:15:53;;;;;;;1999.90;999.90;;;11.80;99.90;;;;;;5115068;27;20077;-67
2023/10/14 12:18:20;;;;;;;1999.90;999.90;;;11.80;99.90;;;;;;5114684;27;20062;-68
2023/10/14 12:20:48;;;;;;;1999.90;999.90;;;11.80;99.90;;;;;;5116092;27;20311;-67
2023/10/14 12:23:14;;;;;;;1999.90;999.90;;;11.90;99.90;;;;;;5097100;27;20038;-67
2023/10/14 12:25:40;;;;;;;;;;;12.00;99.90;;;;;;5109494;27;20019;-68
2023/10/14 12:28:06;;;;;;;1999.90;999.90;;;12.10;99.90;;;;;;5116564;27;19908;-67
2023/10/14 12:30:39;;;;;;;1999.90;999.90;;;12.20;99.90;;;;;;5105754;28;20027;-79
2023/10/14 12:33:07;;;;;;;1999.90;999.90;;;12.40;99.90;;;;;;5104163;27;20633;-83
2023/10/14 12:35:34;;;;;;;1999.90;999.90;;;12.30;99.90;;;;;;5087812;28;20486;-67
2023/10/14 12:38:00;;;;;;;1999.90;999.90;;;12.20;99.90;;;;;;5105301;27;20031;-67
2023/10/14 12:40:29;;;;;;;1999.90;999.90;;;12.10;99.90;;;;;;5098378;28;20046;-68
2023/10/14 12:43:02;;;;;;;1999.90;999.90;;;12.00;99.90;;;;;;5123585;27;20040;-67
2023/10/14 12:45:28;;;;;;;1999.90;999.90;;;11.90;99.90;;;;;;5101276;27;20024;-67
2023/10/14 12:48:00;;;;;;;1999.90;999.90;;;12.00;99.90;;;;;;5104975;27;20031;-68
2023/10/14 12:50:27;;;;;;;1999.90;999.90;;;12.00;99.90;;;;;;5091282;28;20044;-67
2023/10/14 12:53:02;;;;;;;1999.90;999.90;;;12.10;99.90;;;;;;5091368;28;20058;-67
2023/10/14 12:55:31;;;;;;;1999.90;999.90;;;12.00;99.90;;;;;;5089541;28;20040;-68
2023/10/14 12:57:58;;;;;;;1999.90;999.90;;;12.00;99.90;;;;;;5083799;28;20311;-67
2023/10/14 13:00:30;;;;;;;;;;;12.10;99.90;;;;;;5091512;28;20027;-67
2023/10/14 13:02:57;;;;;;;1999.90;999.90;;;12.30;99.90;;;;;;5091243;28;20010;-67
2023/10/14 13:05:27;;;;;;;1999.90;999.90;;;12.30;99.90;;;;;;5085422;28;20055;-66